createdAt,value
2019-03-12T00:01:24.043Z,3.22
2019-03-12T00:03:55.048Z,3.03
2019-03-12T00:06:26.021Z,2.97
2019-03-12T00:08:56.811Z,2.80
2019-03-12T00:11:27.856Z,2.61
2019-03-12T00:13:58.841Z,2.46
2019-03-12T00:16:29.906Z,2.37
2019-03-12T00:19:00.904Z,2.30
2019-03-12T00:21:31.654Z,2.28
2019-03-12T00:24:02.710Z,2.24
2019-03-12T00:26:33.567Z,2.14
2019-03-12T00:29:04.669Z,1.98
2019-03-12T00:31:35.646Z,1.97
2019-03-12T00:34:06.459Z,1.88
2019-03-12T00:36:37.442Z,1.79
2019-03-12T00:39:08.506Z,1.79
2019-03-12T00:41:40.859Z,1.83
2019-03-12T00:44:11.629Z,1.75
2019-03-12T00:46:42.739Z,1.88
2019-03-12T00:49:14.002Z,1.94
2019-03-12T00:51:44.973Z,2.07
2019-03-12T00:54:16.487Z,2.05
2019-03-12T00:56:47.239Z,1.93
2019-03-12T00:59:17.994Z,1.99
2019-03-12T01:01:48.987Z,1.86
2019-03-12T01:04:20.211Z,1.76
2019-03-12T01:06:50.970Z,1.80
2019-03-12T01:09:22.414Z,1.74
2019-03-12T01:11:53.159Z,1.81
2019-03-12T01:14:24.060Z,1.76
2019-03-12T01:16:57.699Z,1.75
2019-03-12T01:19:28.709Z,1.72
2019-03-12T01:21:59.700Z,1.81
2019-03-12T01:24:31.155Z,2.29
2019-03-12T01:27:02.483Z,2.73
2019-03-12T01:32:14.180Z,3.58
2019-03-12T01:34:45.222Z,3.78
2019-03-12T01:37:16.019Z,3.90
2019-03-12T01:39:47.060Z,3.97
2019-03-12T01:42:18.078Z,3.98
2019-03-12T01:44:49.847Z,4.00
2019-03-12T01:47:20.934Z,3.96
2019-03-12T01:49:51.730Z,4.02
2019-03-12T01:52:22.557Z,4.05
2019-03-12T01:54:53.389Z,4.11
2019-03-12T01:57:24.178Z,4.16
2019-03-12T01:59:55.438Z,4.12
2019-03-12T02:02:26.205Z,4.09
2019-03-12T02:04:56.998Z,4.08
2019-03-12T02:07:28.022Z,4.18
2019-03-12T02:09:58.895Z,4.18
2019-03-12T02:12:29.701Z,4.05
2019-03-12T02:15:00.788Z,4.12
2019-03-12T02:17:31.554Z,4.18
2019-03-12T02:20:02.675Z,4.13
2019-03-12T02:22:33.868Z,4.06
2019-03-12T02:25:05.015Z,3.98
2019-03-12T02:27:35.782Z,3.91
2019-03-12T02:30:07.429Z,3.75
2019-03-12T02:32:38.490Z,3.71
2019-03-12T02:35:09.366Z,3.60
2019-03-12T02:37:40.363Z,3.61
2019-03-12T02:40:11.413Z,3.63
2019-03-12T02:42:42.258Z,3.58
2019-03-12T02:45:13.354Z,3.68
2019-03-12T02:47:45.149Z,3.66
2019-03-12T02:50:16.325Z,3.67
2019-03-12T02:52:47.346Z,3.76
2019-03-12T02:55:18.338Z,3.78
2019-03-12T02:57:49.183Z,3.74
2019-03-12T03:00:21.300Z,3.75
2019-03-12T03:02:52.406Z,3.69
2019-03-12T03:05:23.345Z,3.58
2019-03-12T03:07:59.862Z,3.64
2019-03-12T03:10:31.158Z,3.54
2019-03-12T03:13:02.599Z,3.47
2019-03-12T03:15:51.411Z,3.48
2019-03-12T03:18:22.567Z,3.42
2019-03-12T03:20:53.766Z,3.40
2019-03-12T03:23:25.416Z,3.28
2019-03-12T03:25:56.547Z,3.36
2019-03-12T03:28:28.139Z,3.36
2019-03-12T03:30:59.242Z,3.35
2019-03-12T03:33:30.082Z,3.31
2019-03-12T03:36:01.018Z,3.27
2019-03-12T03:38:32.080Z,3.25
2019-03-12T03:41:02.947Z,3.22
2019-03-12T03:43:34.197Z,3.09
2019-03-12T03:46:05.192Z,3.14
2019-03-12T03:48:36.477Z,3.21
2019-03-12T03:51:07.432Z,3.13
2019-03-12T03:53:38.283Z,3.18
2019-03-12T03:56:09.307Z,3.07
2019-03-12T03:58:40.090Z,3.00
2019-03-12T04:01:11.338Z,2.97
2019-03-12T04:03:42.125Z,2.93
2019-03-12T04:06:13.541Z,2.95
2019-03-12T04:08:44.300Z,2.86
2019-03-12T04:11:15.518Z,2.76
2019-03-12T04:13:46.309Z,2.80
2019-03-12T04:16:17.563Z,2.77
2019-03-12T04:18:48.711Z,2.86
2019-03-12T04:21:19.851Z,2.86
2019-03-12T04:23:50.961Z,2.82
2019-03-12T04:26:22.205Z,2.84
2019-03-12T04:28:53.490Z,2.90
2019-03-12T04:31:24.682Z,2.91
2019-03-12T04:34:32.076Z,2.82
2019-03-12T04:37:03.173Z,2.88
2019-03-12T04:39:34.184Z,2.81
2019-03-12T04:42:05.276Z,2.86
2019-03-12T04:44:36.271Z,2.75
2019-03-12T04:47:07.371Z,2.63
2019-03-12T04:49:38.153Z,2.77
2019-03-12T04:52:10.216Z,2.82
2019-03-12T04:54:40.989Z,2.65
2019-03-12T04:57:12.014Z,2.76
2019-03-12T04:59:43.101Z,2.59
2019-03-12T05:02:14.845Z,2.57
2019-03-12T05:04:46.058Z,2.52
2019-03-12T05:07:16.886Z,2.63
2019-03-12T05:09:47.986Z,2.56
2019-03-12T05:12:18.851Z,2.60
2019-03-12T05:14:49.742Z,2.64
2019-03-12T05:17:31.732Z,2.56
2019-03-12T05:20:02.823Z,2.51
2019-03-12T05:22:33.771Z,2.49
2019-03-12T05:25:05.287Z,2.49
2019-03-12T05:27:36.370Z,2.65
2019-03-12T05:30:10.027Z,2.51
2019-03-12T05:32:41.046Z,2.53
2019-03-12T05:35:11.994Z,2.54
2019-03-12T05:37:43.002Z,2.63
2019-03-12T05:40:14.185Z,2.73
2019-03-12T05:42:45.163Z,2.61
2019-03-12T05:45:16.245Z,2.45
2019-03-12T05:47:47.121Z,2.68
2019-03-12T05:50:18.125Z,2.54
2019-03-12T05:52:49.651Z,2.65
2019-03-12T05:55:20.536Z,2.63
2019-03-12T05:57:51.551Z,2.75
2019-03-12T06:00:23.927Z,2.84
2019-03-12T06:02:55.023Z,2.94
2019-03-12T06:05:25.880Z,2.87
2019-03-12T06:07:57.002Z,2.95
2019-03-12T06:10:27.858Z,2.70
2019-03-12T06:12:58.998Z,2.89
2019-03-12T06:15:29.851Z,3.12
2019-03-12T06:18:01.221Z,2.98
2019-03-12T06:20:32.155Z,3.20
2019-03-12T06:23:03.310Z,3.39
2019-03-12T06:25:34.354Z,3.40
2019-03-12T06:28:05.308Z,3.35
2019-03-12T06:30:44.685Z,3.34
2019-03-12T06:33:24.187Z,3.37
2019-03-12T06:36:05.080Z,3.44
2019-03-12T06:38:57.713Z,3.41
2019-03-12T06:41:34.517Z,3.35
2019-03-12T06:44:15.293Z,3.45
2019-03-12T06:47:04.031Z,3.43
2019-03-12T06:49:46.983Z,3.46
2019-03-12T06:52:31.685Z,3.60
2019-03-12T06:55:09.063Z,3.61
2019-03-12T06:58:26.706Z,3.53
2019-03-12T07:01:15.199Z,3.53
2019-03-12T07:04:08.357Z,3.55
2019-03-12T07:06:56.193Z,3.62
2019-03-12T07:09:36.787Z,3.51
2019-03-12T07:12:21.454Z,3.48
2019-03-12T07:15:17.382Z,3.43
2019-03-12T07:17:56.489Z,3.34
2019-03-12T07:20:49.380Z,3.48
2019-03-12T07:23:29.189Z,3.50
2019-03-12T07:26:10.653Z,3.72
2019-03-12T07:28:50.536Z,3.97
2019-03-12T07:31:27.132Z,4.01
2019-03-12T07:34:09.465Z,4.09
2019-03-12T07:36:55.111Z,4.28
2019-03-12T07:39:51.226Z,4.43
2019-03-12T07:42:44.296Z,4.44
2019-03-12T07:45:24.829Z,4.54
2019-03-12T07:48:14.848Z,4.57
2019-03-12T07:51:03.369Z,4.73
2019-03-12T07:54:00.776Z,4.70
2019-03-12T07:56:44.288Z,4.72
2019-03-12T07:59:45.923Z,4.81
2019-03-12T08:02:34.306Z,4.60
2019-03-12T08:05:30.358Z,4.68
2019-03-12T08:08:20.463Z,4.61
2019-03-12T08:11:23.405Z,4.68
2019-03-12T08:14:08.149Z,4.78
2019-03-12T08:16:56.703Z,4.82
2019-03-12T08:19:43.519Z,4.81
2019-03-12T08:22:33.335Z,5.10
2019-03-12T08:25:32.277Z,5.36
2019-03-12T08:28:20.750Z,5.32
2019-03-12T08:31:06.117Z,5.51
2019-03-12T08:33:50.453Z,5.68
2019-03-12T08:36:36.575Z,5.66
2019-03-12T08:39:22.886Z,5.90
2019-03-12T08:42:09.706Z,6.01
2019-03-12T08:45:11.285Z,6.10
2019-03-12T08:47:55.698Z,5.96
2019-03-12T08:50:45.260Z,6.08
2019-03-12T08:53:22.145Z,6.21
2019-03-12T08:56:15.223Z,5.83
2019-03-12T08:58:52.982Z,5.95
2019-03-12T09:01:28.853Z,6.17
2019-03-12T09:04:15.254Z,6.41
2019-03-12T09:07:07.846Z,6.21
2019-03-12T09:09:56.341Z,6.34
2019-03-12T09:12:45.195Z,6.58
2019-03-12T09:15:25.515Z,6.87
2019-03-12T09:18:15.456Z,6.65
2019-03-12T09:21:00.230Z,7.06
2019-03-12T09:23:59.392Z,7.06
2019-03-12T09:26:47.659Z,7.26
2019-03-12T09:29:26.489Z,7.25
2019-03-12T09:32:18.221Z,7.41
2019-03-12T09:35:23.578Z,7.70
2019-03-12T09:38:02.002Z,7.49
2019-03-12T09:40:40.465Z,7.56
2019-03-12T09:43:35.350Z,7.40
2019-03-12T09:46:23.590Z,7.40
2019-03-12T09:49:11.502Z,7.72
2019-03-12T09:52:05.120Z,7.34
2019-03-12T09:54:50.293Z,7.68
2019-03-12T09:57:55.373Z,7.75
2019-03-12T10:00:34.994Z,8.03
2019-03-12T10:03:27.654Z,8.01
2019-03-12T10:06:16.094Z,7.92
2019-03-12T10:09:13.135Z,8.21
2019-03-12T10:11:50.447Z,8.60
2019-03-12T10:14:38.021Z,8.66
2019-03-12T10:17:23.439Z,8.54
2019-03-12T10:20:18.714Z,8.65
2019-03-12T10:23:02.293Z,8.50
2019-03-12T10:25:48.118Z,8.43
2019-03-12T10:28:44.007Z,8.53
2019-03-12T10:31:36.529Z,8.75
2019-03-12T10:34:30.009Z,8.94
2019-03-12T10:37:12.435Z,8.76
2019-03-12T10:40:16.618Z,8.88
2019-03-12T10:43:12.343Z,9.24
2019-03-12T10:46:00.780Z,9.13
2019-03-12T10:48:32.311Z,9.05
2019-03-12T10:51:04.244Z,9.04
2019-03-12T10:53:35.398Z,8.95
2019-03-12T10:56:06.483Z,9.07
2019-03-12T10:58:38.205Z,9.01
2019-03-12T11:01:09.460Z,9.09
2019-03-12T11:03:40.469Z,9.13
2019-03-12T11:06:11.426Z,9.17
2019-03-12T11:08:42.226Z,9.44
2019-03-12T11:11:13.189Z,9.35
2019-03-12T11:13:43.952Z,9.43
2019-03-12T11:16:14.801Z,9.35
2019-03-12T11:18:45.676Z,9.57
2019-03-12T11:21:16.567Z,9.48
2019-03-12T11:23:47.358Z,9.53
2019-03-12T11:26:18.454Z,9.52
2019-03-12T11:28:49.683Z,9.49
2019-03-12T11:31:20.537Z,9.47
2019-03-12T11:33:51.554Z,9.40
2019-03-12T11:36:23.833Z,9.43
2019-03-12T11:38:54.621Z,9.48
2019-03-12T11:41:25.449Z,9.61
2019-03-12T11:43:56.322Z,9.99
2019-03-12T11:46:27.164Z,9.62
2019-03-12T11:48:58.194Z,9.65
2019-03-12T11:51:29.218Z,9.83
2019-03-12T11:54:00.782Z,9.89
2019-03-12T11:56:31.822Z,10.06
2019-03-12T11:59:02.943Z,10.07
2019-03-12T12:01:33.813Z,10.09
2019-03-12T12:04:04.830Z,9.96
2019-03-12T12:06:35.969Z,9.93
2019-03-12T12:09:07.578Z,10.17
2019-03-12T12:11:40.193Z,10.43
2019-03-12T12:14:11.340Z,10.18
2019-03-12T12:16:42.482Z,9.82
2019-03-12T12:19:13.393Z,9.87
2019-03-12T12:21:44.251Z,9.74
2019-03-12T12:24:15.180Z,9.73
2019-03-12T12:26:46.236Z,9.70
2019-03-12T12:29:17.108Z,9.81
2019-03-12T12:31:48.159Z,10.01
2019-03-12T12:34:19.694Z,10.09
2019-03-12T12:36:50.781Z,10.09
2019-03-12T12:39:21.638Z,10.04
2019-03-12T12:41:52.486Z,10.34
2019-03-12T12:44:23.849Z,10.33
2019-03-12T12:46:54.844Z,10.01
2019-03-12T12:49:25.673Z,9.86
2019-03-12T12:51:56.421Z,9.79
2019-03-12T12:54:27.348Z,9.89
2019-03-12T12:57:01.757Z,9.66
2019-03-12T12:59:32.552Z,9.76
2019-03-12T13:02:03.392Z,9.75
2019-03-12T13:04:34.310Z,9.82
2019-03-12T13:07:05.166Z,9.75
2019-03-12T13:09:36.254Z,9.61
2019-03-12T13:12:07.100Z,9.65
2019-03-12T13:14:41.641Z,9.55
2019-03-12T13:17:10.506Z,9.67
2019-03-12T13:19:41.453Z,9.72
2019-03-12T13:22:12.950Z,9.98
2019-03-12T13:24:44.272Z,9.82
2019-03-12T13:27:15.164Z,9.96
2019-03-12T13:29:46.204Z,10.01
2019-03-12T13:32:17.069Z,10.03
2019-03-12T13:34:48.060Z,10.00
2019-03-12T13:37:19.071Z,10.21
2019-03-12T13:39:51.166Z,10.43
2019-03-12T13:42:21.939Z,10.80
2019-03-12T13:44:52.970Z,10.67
2019-03-12T13:47:28.702Z,10.63
2019-03-12T13:49:56.646Z,10.69
2019-03-12T13:52:27.612Z,10.35
2019-03-12T13:54:58.729Z,10.54
2019-03-12T13:57:29.829Z,10.54
2019-03-12T14:00:01.046Z,10.70
2019-03-12T14:02:33.889Z,10.82
2019-03-12T14:05:04.801Z,11.05
2019-03-12T14:07:35.683Z,11.17
2019-03-12T14:10:07.490Z,11.53
2019-03-12T14:12:38.565Z,11.53
2019-03-12T14:15:11.723Z,11.37
2019-03-12T14:17:42.566Z,11.26
2019-03-12T14:20:38.345Z,11.41
2019-03-12T14:23:09.605Z,11.50
2019-03-12T14:25:40.676Z,11.62
2019-03-12T14:28:11.783Z,11.42
2019-03-12T14:30:42.611Z,11.30
2019-03-12T14:33:13.738Z,11.22
2019-03-12T14:35:51.331Z,11.39
2019-03-12T14:38:17.522Z,11.34
2019-03-12T14:40:48.558Z,11.30
2019-03-12T14:43:19.401Z,11.31
2019-03-12T14:45:50.887Z,11.00
2019-03-12T14:48:44.478Z,10.98
2019-03-12T14:51:25.501Z,10.80
2019-03-12T14:53:56.504Z,10.75
2019-03-12T14:56:29.138Z,10.55
2019-03-12T14:59:00.261Z,10.47
2019-03-12T15:01:31.222Z,10.47
2019-03-12T15:04:02.135Z,10.49
2019-03-12T15:06:33.390Z,10.37
2019-03-12T15:09:07.512Z,10.39
2019-03-12T15:11:40.283Z,10.58
2019-03-12T15:14:11.053Z,10.68
2019-03-12T15:16:42.138Z,10.57
2019-03-12T15:19:13.290Z,10.43
2019-03-12T15:21:44.542Z,10.39
2019-03-12T15:24:16.426Z,10.22
2019-03-12T15:26:47.216Z,10.33
2019-03-12T15:29:18.389Z,10.45
2019-03-12T15:31:49.178Z,10.47
2019-03-12T15:34:20.020Z,10.45
2019-03-12T15:36:51.178Z,10.48
2019-03-12T15:39:22.522Z,10.64
2019-03-12T15:41:53.529Z,10.59
2019-03-12T15:44:24.378Z,10.49
2019-03-12T15:46:55.226Z,10.49
2019-03-12T15:49:26.061Z,10.53
2019-03-12T15:51:56.861Z,10.53
2019-03-12T15:54:27.700Z,10.53
2019-03-12T15:56:58.797Z,10.33
2019-03-12T15:59:29.990Z,10.42
2019-03-12T16:02:01.113Z,10.34
2019-03-12T16:04:31.889Z,10.33
2019-03-12T16:07:02.753Z,10.39
2019-03-12T16:09:33.666Z,10.40
2019-03-12T16:12:05.088Z,10.34
2019-03-12T16:14:36.394Z,10.34
2019-03-12T16:17:07.767Z,10.34
2019-03-12T16:19:38.803Z,10.31
2019-03-12T16:22:09.911Z,10.30
2019-03-12T16:24:40.749Z,10.15
2019-03-12T16:27:11.900Z,10.10
2019-03-12T16:29:42.978Z,10.29
2019-03-12T16:32:14.221Z,10.21
2019-03-12T16:34:45.262Z,10.12
2019-03-12T16:37:24.244Z,10.27
2019-03-12T16:39:55.133Z,10.23
2019-03-12T16:42:34.494Z,10.10
2019-03-12T16:44:58.801Z,10.08
2019-03-12T16:47:29.646Z,10.07
2019-03-12T16:50:00.755Z,10.19
2019-03-12T16:52:32.391Z,9.97
2019-03-12T16:55:03.472Z,10.00
2019-03-12T16:57:34.252Z,9.88
2019-03-12T17:00:08.644Z,10.06
2019-03-12T17:02:41.700Z,9.88
2019-03-12T17:05:13.038Z,9.91
2019-03-12T17:07:44.195Z,9.88
2019-03-12T17:10:15.265Z,9.98
2019-03-12T17:12:46.659Z,10.15
2019-03-12T17:15:17.785Z,10.05
2019-03-12T17:17:48.729Z,10.08
2019-03-12T17:20:19.830Z,10.03
2019-03-12T17:22:50.908Z,9.99
2019-03-12T17:25:21.742Z,10.06
2019-03-12T17:27:52.676Z,9.99
2019-03-12T17:30:23.515Z,9.93
2019-03-12T17:32:54.372Z,9.98
2019-03-12T17:35:26.310Z,10.05
2019-03-12T17:37:57.159Z,10.23
2019-03-12T17:40:27.934Z,10.18
2019-03-12T17:42:59.025Z,10.24
2019-03-12T17:45:30.071Z,10.25
2019-03-12T17:48:01.154Z,10.30
2019-03-12T17:50:32.342Z,10.18
2019-03-12T17:53:03.462Z,10.09
2019-03-12T17:55:34.307Z,10.10
2019-03-12T17:58:05.391Z,9.96
2019-03-12T18:00:37.471Z,9.89
2019-03-12T18:03:08.250Z,9.91
2019-03-12T18:05:39.318Z,10.09
2019-03-12T18:08:10.600Z,9.95
2019-03-12T18:10:41.354Z,9.76
2019-03-12T18:13:12.249Z,9.69
2019-03-12T18:15:43.021Z,9.65
2019-03-12T18:18:13.833Z,9.69
2019-03-12T18:20:44.679Z,9.59
2019-03-12T18:23:15.861Z,9.60
2019-03-12T18:25:47.041Z,9.70
2019-03-12T18:28:18.316Z,9.77
2019-03-12T18:30:49.134Z,9.73
2019-03-12T18:33:20.093Z,9.86
2019-03-12T18:35:50.923Z,9.97
2019-03-12T18:38:21.993Z,9.96
2019-03-12T18:40:53.186Z,10.07
2019-03-12T18:43:24.038Z,10.15
2019-03-12T18:45:55.066Z,10.28
2019-03-12T18:48:26.097Z,10.25
2019-03-12T18:50:56.946Z,10.40
2019-03-12T18:53:29.254Z,10.36
2019-03-12T18:56:07.572Z,10.41
2019-03-12T18:58:38.438Z,10.39
2019-03-12T19:01:16.205Z,10.26
2019-03-12T19:03:47.206Z,10.29
2019-03-12T19:06:19.015Z,10.64
2019-03-12T19:08:49.932Z,10.64
2019-03-12T19:11:20.698Z,10.58
2019-03-12T19:13:52.050Z,10.68
2019-03-12T19:16:22.993Z,10.66
2019-03-12T19:18:54.162Z,10.75
2019-03-12T19:21:25.352Z,10.77
2019-03-12T19:23:56.739Z,10.88
2019-03-12T19:26:28.182Z,10.85
2019-03-12T19:28:59.372Z,11.05
2019-03-12T19:32:08.350Z,11.26
2019-03-12T19:34:40.438Z,11.20
2019-03-12T19:37:11.491Z,11.28
2019-03-12T19:39:42.644Z,11.38
2019-03-12T19:42:13.572Z,11.30
2019-03-12T19:44:44.488Z,11.43
2019-03-12T19:47:15.558Z,11.47
2019-03-12T19:49:46.518Z,11.53
2019-03-12T19:52:17.445Z,11.52
2019-03-12T19:54:49.660Z,11.58
2019-03-12T19:57:21.020Z,11.58
2019-03-12T19:59:52.065Z,11.48
2019-03-12T20:02:23.018Z,11.47
2019-03-12T20:04:54.071Z,11.53
2019-03-12T20:07:25.540Z,11.51
2019-03-12T20:10:20.581Z,11.57
2019-03-12T20:13:16.896Z,11.36
2019-03-12T20:16:46.871Z,11.57
2019-03-12T20:20:03.749Z,11.58
2019-03-12T20:23:10.426Z,11.62
2019-03-12T20:26:18.625Z,11.62
2019-03-12T20:29:29.341Z,11.54
2019-03-12T20:32:37.384Z,11.48
2019-03-12T20:35:53.201Z,11.52
2019-03-12T20:39:10.999Z,11.59
2019-03-12T20:42:20.750Z,11.60
2019-03-12T20:45:44.884Z,11.59
2019-03-12T20:49:10.836Z,11.49
2019-03-12T20:52:14.543Z,11.46
2019-03-12T20:55:16.154Z,11.46
2019-03-12T20:58:31.532Z,11.49
2019-03-12T21:01:40.381Z,11.49
2019-03-12T21:04:38.286Z,11.40
2019-03-12T21:07:46.488Z,11.40
2019-03-12T21:11:03.289Z,11.36
2019-03-12T21:14:24.125Z,11.30
2019-03-12T21:17:23.278Z,11.31
2019-03-12T21:20:33.699Z,11.33
2019-03-12T21:23:26.591Z,11.32
2019-03-12T21:26:50.957Z,11.24
2019-03-12T21:29:49.218Z,11.29
2019-03-12T21:32:20.259Z,11.20
2019-03-12T21:34:51.152Z,11.21
2019-03-12T21:37:22.170Z,11.33
2019-03-12T21:39:56.050Z,11.29
2019-03-12T21:42:25.998Z,11.27
2019-03-12T21:44:56.801Z,11.25
2019-03-12T21:47:27.932Z,11.07
2019-03-12T21:49:59.123Z,11.03
2019-03-12T21:52:30.157Z,10.93
2019-03-12T21:55:01.406Z,10.85
2019-03-12T21:57:32.426Z,10.53
2019-03-12T22:00:03.392Z,10.36
2019-03-12T22:02:35.928Z,10.16
2019-03-12T22:05:07.199Z,10.08
2019-03-12T22:07:38.212Z,10.20
2019-03-12T22:10:09.728Z,10.23
2019-03-12T22:12:40.849Z,10.22
2019-03-12T22:15:11.708Z,10.27
2019-03-12T22:17:42.725Z,10.17
2019-03-12T22:20:13.911Z,10.27
2019-03-12T22:23:21.725Z,10.37
2019-03-12T22:25:55.868Z,10.21
2019-03-12T22:28:25.306Z,10.07
2019-03-12T22:30:56.088Z,9.97
2019-03-12T22:33:27.090Z,9.89
2019-03-12T22:35:58.155Z,9.94
2019-03-12T22:38:29.519Z,9.88
2019-03-12T22:41:00.281Z,9.89
2019-03-12T22:43:31.119Z,9.85
2019-03-12T22:46:01.887Z,9.97
2019-03-12T22:48:32.901Z,9.83
2019-03-12T22:51:03.973Z,9.89
2019-03-12T22:53:34.759Z,10.01
2019-03-12T22:56:05.771Z,9.99
2019-03-12T22:58:36.545Z,9.98
2019-03-12T23:01:25.314Z,10.07
2019-03-12T23:04:14.162Z,10.14
2019-03-12T23:07:02.303Z,10.35
2019-03-12T23:09:49.993Z,10.37
2019-03-12T23:12:22.375Z,10.39
2019-03-12T23:14:54.130Z,10.40
2019-03-12T23:17:25.285Z,10.37
2019-03-12T23:19:56.282Z,10.34
2019-03-12T23:22:27.825Z,10.34
2019-03-12T23:24:59.058Z,10.50
2019-03-12T23:27:30.694Z,10.57
2019-03-12T23:30:02.216Z,10.66
2019-03-12T23:32:34.390Z,10.66
2019-03-12T23:35:05.797Z,10.60
2019-03-12T23:37:36.813Z,10.47
2019-03-12T23:40:08.028Z,10.33
2019-03-12T23:42:38.967Z,10.21
2019-03-12T23:45:10.383Z,10.16
2019-03-12T23:47:41.244Z,10.04
2019-03-12T23:50:12.726Z,9.99
2019-03-12T23:52:44.056Z,9.91
2019-03-12T23:55:15.287Z,9.82
2019-03-12T23:57:46.750Z,9.81
